Time,TemperatureF,DewpointF,PressureIn,WindDirection,WindDirectionDegrees,WindSpeedMPH,WindSpeedGustMPH,Humidity,HourlyPrecipIn,Conditions,Clouds,dailyrainin,SolarRadiationWatts/m^2,SoftwareType,DateUTC
2013-01-14 00:00:00,53.2,53.2,29.92,SSW,209,1.1,1.1,100,0.00,CLR,SCT,0.02,0.0,WeatherDisplay:10.37,2013-01-14 05:00:00,
2013-01-14 00:01:00,53.3,53.3,29.92,SSW,209,0.0,0.0,100,0.00,RA,SCT,0.00,0.0,WeatherDisplay:10.37,2013-01-14 05:01:00,
2013-01-14 00:03:00,53.3,53.3,29.92,SSW,209,0.0,0.0,100,0.00,RA,SCT,0.00,0.0,WeatherDisplay:10.37,2013-01-14 05:03:00,
2013-01-14 00:08:00,53.4,53.4,29.93,SSW,209,1.1,1.1,100,0.00,RA,SCT,0.00,0.0,WeatherDisplay:10.37,2013-01-14 05:08:00,
2013-01-14 00:13:00,53.6,53.6,29.92,SSW,212,1.1,0.0,100,0.00,CLR,SCT,0.00,0.0,WeatherDisplay:10.37,2013-01-14 05:13:00,
2013-01-14 00:18:00,53.7,53.7,29.92,SSW,212,0.0,0.0,100,0.00,CLR,SCT,0.00,0.0,WeatherDisplay:10.37,2013-01-14 05:18:00,
2013-01-14 00:23:00,53.9,53.9,29.92,SSW,209,0.0,0.1,100,0.00,CLR,SCT,0.00,0.0,WeatherDisplay:10.37,2013-01-14 05:23:00,
2013-01-14 00:28:00,54.1,54.1,29.92,SSE,159,0.0,0.2,100,0.00,CLR,SCT,0.00,0.0,WeatherDisplay:10.37,2013-01-14 05:28:00,
2013-01-14 00:33:00,54.3,54.3,29.92,SSE,157,1.1,1.1,100,0.00,CLR,SCT,0.00,0.0,WeatherDisplay:10.37,2013-01-14 05:33:00,
2013-01-14 00:38:00,54.4,54.4,29.92,SW,221,1.1,1.1,100,0.00,CLR,SCT,0.00,0.0,WeatherDisplay:10.37,2013-01-14 05:38:00,
2013-01-14 00:43:00,54.5,54.5,29.92,SW,221,0.0,0.0,100,0.00,CLR,SCT,0.00,0.0,WeatherDisplay:10.37,2013-01-14 05:43:00,
2013-01-14 00:48:00,54.6,54.6,29.92,SW,221,0.0,0.0,100,0.00,CLR,SCT,0.00,0.0,WeatherDisplay:10.37,2013-01-14 05:48:00,
2013-01-14 00:53:00,54.8,54.8,29.93,West,265,1.1,1.1,100,0.00,CLR,SCT,0.00,0.0,WeatherDisplay:10.37,2013-01-14 05:53:00,
2013-01-14 00:58:00,55.1,55.1,29.93,West,265,1.1,0.0,100,0.00,CLR,SCT,0.00,0.0,WeatherDisplay:10.37,2013-01-14 05:58:00,
2013-01-14 01:03:00,55.3,55.3,29.93,West,265,1.0,0.0,100,0.00,CLR,SCT,0.00,0.0,WeatherDisplay:10.37,2013-01-14 06:03:00,
2013-01-14 01:08:00,55.5,55.5,29.94,West,265,3.5,3.5,100,0.00,CLR,SCT,0.00,0.0,WeatherDisplay:10.37,2013-01-14 06:08:00,
2013-01-14 01:13:00,55.6,55.6,29.94,West,267,1.1,0.0,100,0.00,CLR,SCT,0.00,0.0,WeatherDisplay:10.37,2013-01-14 06:13:00,
2013-01-14 01:18:00,55.8,55.8,29.94,West,267,1.1,1.1,100,0.00,CLR,SCT,0.00,0.0,WeatherDisplay:10.37,2013-01-14 06:18:00,
2013-01-14 01:23:00,55.9,55.9,29.94,West,267,1.1,1.1,100,0.00,CLR,SCT,0.00,0.0,WeatherDisplay:10.37,2013-01-14 06:23:00,
2013-01-14 01:28:00,55.9,55.9,29.94,West,267,1.1,1.1,100,0.00,CLR,SCT,0.00,0.0,WeatherDisplay:10.37,2013-01-14 06:28:00,
2013-01-14 01:33:00,56.0,56.0,29.94,WNW,282,0.0,0.0,100,0.00,CLR,SCT,0.00,0.0,WeatherDisplay:10.37,2013-01-14 06:33:00,
2013-01-14 01:38:00,56.0,56.0,29.94,WNW,282,1.1,0.0,100,0.00,CLR,SCT,0.00,0.0,WeatherDisplay:10.37,2013-01-14 06:38:00,
2013-01-14 01:43:00,56.2,56.2,29.94,West,279,2.3,2.3,100,0.00,CLR,SCT,0.00,0.0,WeatherDisplay:10.37,2013-01-14 06:43:00,
2013-01-14 01:48:00,56.4,56.4,29.94,West,274,2.3,2.3,100,0.00,CLR,SCT,0.00,0.0,WeatherDisplay:10.37,2013-01-14 06:48:00,
2013-01-14 01:53:00,56.6,56.6,29.94,West,277,1.1,1.1,100,0.00,CLR,SCT,0.00,0.0,WeatherDisplay:10.37,2013-01-14 06:53:00,
2013-01-14 01:58:00,56.8,56.8,29.94,West,269,2.3,2.3,100,0.00,CLR,SCT,0.00,0.0,WeatherDisplay:10.37,2013-01-14 06:58:00,
2013-01-14 02:03:00,57.1,57.1,29.95,WSW,254,3.5,3.5,100,0.00,CLR,SCT,0.00,0.0,WeatherDisplay:10.37,2013-01-14 07:03:00,
2013-01-14 02:08:00,57.3,57.3,29.95,WSW,249,3.5,3.5,100,0.00,CLR,SCT,0.00,0.0,WeatherDisplay:10.37,2013-01-14 07:08:00,
2013-01-14 02:13:00,57.3,57.3,29.96,West,275,3.5,3.5,100,0.00,CLR,SCT,0.00,0.0,WeatherDisplay:10.37,2013-01-14 07:13:00,
2013-01-14 02:18:00,57.3,57.3,29.95,West,275,2.3,2.3,100,0.00,CLR,SCT,0.00,0.0,WeatherDisplay:10.37,2013-01-14 07:18:00,
2013-01-14 02:23:00,57.3,57.3,29.95,WNW,286,1.1,1.1,100,0.00,CLR,SCT,0.00,0.0,WeatherDisplay:10.37,2013-01-14 07:23:00,
2013-01-14 02:28:00,57.3,57.3,29.95,West,277,3.5,3.5,100,0.00,CLR,SCT,0.00,0.0,WeatherDisplay:10.37,2013-01-14 07:28:00,
2013-01-14 02:33:00,57.3,57.3,29.96,West,274,2.3,2.3,100,0.00,CLR,SCT,0.00,0.0,WeatherDisplay:10.37,2013-01-14 07:33:00,
2013-01-14 02:38:00,57.3,57.3,29.96,West,265,1.1,1.1,100,0.00,CLR,SCT,0.00,0.0,WeatherDisplay:10.37,2013-01-14 07:38:00,
2013-01-14 02:43:00,57.2,57.2,29.96,West,266,1.1,1.1,100,0.00,CLR,SCT,0.00,0.0,WeatherDisplay:10.37,2013-01-14 07:43:00,
2013-01-14 02:48:00,57.2,57.2,29.96,West,265,1.1,1.1,100,0.00,CLR,SCT,0.00,0.0,WeatherDisplay:10.37,2013-01-14 07:48:00,
2013-01-14 02:53:00,57.1,57.1,29.95,West,265,1.1,1.1,100,0.00,CLR,SCT,0.00,0.0,WeatherDisplay:10.37,2013-01-14 07:53:00,
2013-01-14 02:58:00,57.0,57.0,29.94,West,265,0.0,0.0,100,0.00,CLR,SCT,0.00,0.0,WeatherDisplay:10.37,2013-01-14 07:58:00,
2013-01-14 03:03:00,56.8,56.8,29.94,West,265,0.0,0.0,100,0.00,CLR,SCT,0.00,0.0,WeatherDisplay:10.37,2013-01-14 08:03:00,
2013-01-14 03:08:00,56.7,56.7,29.93,West,267,1.1,1.1,100,0.00,CLR,SCT,0.00,0.0,WeatherDisplay:10.37,2013-01-14 08:08:00,
2013-01-14 03:13:00,56.7,56.7,29.90,West,281,1.1,1.1,100,0.00,CLR,SCT,0.00,0.0,WeatherDisplay:10.37,2013-01-14 08:13:00,
2013-01-14 03:18:00,56.6,56.6,29.90,West,280,0.0,0.0,100,0.00,CLR,SCT,0.00,0.0,WeatherDisplay:10.37,2013-01-14 08:18:00,
2013-01-14 03:23:00,56.6,56.6,29.92,West,280,0.0,0.0,100,0.00,CLR,SCT,0.00,0.0,WeatherDisplay:10.37,2013-01-14 08:23:00,
2013-01-14 03:28:00,56.6,56.6,29.92,West,280,0.0,0.0,100,0.00,CLR,SCT,0.00,0.0,WeatherDisplay:10.37,2013-01-14 08:28:00,
2013-01-14 03:33:00,56.6,56.6,29.93,West,280,1.1,1.1,100,0.00,CLR,SCT,0.00,0.0,WeatherDisplay:10.37,2013-01-14 08:33:00,
2013-01-14 03:38:00,56.5,56.5,29.92,West,279,0.0,0.0,100,0.00,CLR,SCT,0.00,0.0,WeatherDisplay:10.37,2013-01-14 08:38:00,
2013-01-14 03:44:00,56.6,56.6,29.92,West,280,1.1,1.1,100,0.00,CLR,SCT,0.00,0.0,WeatherDisplay:10.37,2013-01-14 08:44:00,
2013-01-14 03:49:00,56.5,56.5,29.93,West,280,0.0,0.0,100,0.00,CLR,SCT,0.00,0.0,WeatherDisplay:10.37,2013-01-14 08:49:00,
2013-01-14 03:54:00,56.4,56.4,29.92,West,280,1.0,1.0,100,0.00,CLR,SCT,0.00,0.0,WeatherDisplay:10.37,2013-01-14 08:54:00,
2013-01-14 03:59:00,56.3,56.3,29.93,West,281,0.0,0.0,100,0.00,CLR,SCT,0.00,0.0,WeatherDisplay:10.37,2013-01-14 08:59:00,
2013-01-14 04:04:00,56.3,56.3,29.92,West,281,0.0,0.0,100,0.00,CLR,SCT,0.00,0.0,WeatherDisplay:10.37,2013-01-14 09:04:00,
2013-01-14 04:09:00,56.4,56.4,29.94,West,280,3.5,3.5,100,0.00,CLR,SCT,0.00,0.0,WeatherDisplay:10.37,2013-01-14 09:09:00,
2013-01-14 04:14:00,56.4,56.4,29.94,West,268,3.5,3.5,100,0.00,CLR,SCT,0.00,0.0,WeatherDisplay:10.37,2013-01-14 09:14:00,
2013-01-14 04:19:00,56.7,56.7,29.93,West,267,3.5,3.5,100,0.00,CLR,SCT,0.00,0.0,WeatherDisplay:10.37,2013-01-14 09:19:00,
2013-01-14 04:24:00,56.8,56.8,29.93,West,272,1.1,1.1,100,0.00,CLR,SCT,0.00,0.0,WeatherDisplay:10.37,2013-01-14 09:24:00,
2013-01-14 04:29:00,56.8,56.8,29.93,West,272,0.0,0.0,100,0.00,CLR,SCT,0.00,0.0,WeatherDisplay:10.37,2013-01-14 09:29:00,
2013-01-14 04:34:00,56.7,56.7,29.93,West,272,2.3,2.3,100,0.00,CLR,SCT,0.00,0.0,WeatherDisplay:10.37,2013-01-14 09:34:00,
2013-01-14 04:39:00,56.8,56.8,29.93,West,271,0.0,0.0,100,0.00,CLR,SCT,0.00,0.0,WeatherDisplay:10.37,2013-01-14 09:39:00,
2013-01-14 04:44:00,56.8,56.8,29.93,West,271,1.1,1.1,100,0.00,CLR,SCT,0.00,0.0,WeatherDisplay:10.37,2013-01-14 09:44:00,
2013-01-14 04:49:00,56.8,56.8,29.94,West,271,1.1,1.1,100,0.00,CLR,SCT,0.00,0.0,WeatherDisplay:10.37,2013-01-14 09:49:00,
2013-01-14 04:54:00,56.8,56.8,29.94,West,271,2.0,2.0,100,0.00,CLR,SCT,0.00,0.0,WeatherDisplay:10.37,2013-01-14 09:54:00,
2013-01-14 04:59:00,56.8,56.8,29.93,West,271,1.1,1.1,100,0.00,CLR,SCT,0.00,0.0,WeatherDisplay:10.37,2013-01-14 09:59:00,
2013-01-14 05:04:00,56.8,56.8,29.92,West,271,2.3,2.3,100,0.00,CLR,SCT,0.00,0.0,WeatherDisplay:10.37,2013-01-14 10:04:00,
2013-01-14 05:09:00,56.8,56.8,29.93,West,271,1.1,1.1,100,0.00,CLR,SCT,0.00,0.0,WeatherDisplay:10.37,2013-01-14 10:09:00,
2013-01-14 05:14:00,56.7,56.7,29.93,West,271,1.1,1.1,100,0.00,CLR,SCT,0.00,0.0,WeatherDisplay:10.37,2013-01-14 10:14:00,
2013-01-14 05:19:00,56.6,56.6,29.92,West,271,1.1,1.1,100,0.00,CLR,SCT,0.00,0.0,WeatherDisplay:10.37,2013-01-14 10:19:00,
2013-01-14 05:24:00,56.6,56.6,29.93,West,271,0.0,0.0,100,0.00,CLR,SCT,0.00,0.0,WeatherDisplay:10.37,2013-01-14 10:24:00,
2013-01-14 05:29:00,56.5,56.5,29.93,West,271,0.0,0.0,100,0.00,CLR,SCT,0.00,0.0,WeatherDisplay:10.37,2013-01-14 10:29:00,
2013-01-14 05:34:00,56.5,56.5,29.93,West,271,0.0,0.0,100,0.00,CLR,SCT,0.00,0.0,WeatherDisplay:10.37,2013-01-14 10:34:00,
2013-01-14 05:39:00,56.5,56.5,29.93,West,271,0.0,0.0,100,0.00,CLR,SCT,0.00,0.0,WeatherDisplay:10.37,2013-01-14 10:39:00,
2013-01-14 05:44:00,56.5,56.5,29.94,West,271,0.0,0.0,100,0.00,CLR,SCT,0.00,0.0,WeatherDisplay:10.37,2013-01-14 10:44:00,
2013-01-14 05:49:00,56.5,56.5,29.94,West,271,0.0,0.0,100,0.00,CLR,SCT,0.00,0.0,WeatherDisplay:10.37,2013-01-14 10:49:00,
2013-01-14 05:54:00,56.5,56.5,29.95,West,271,1.1,0.0,100,0.00,CLR,SCT,0.00,0.0,WeatherDisplay:10.37,2013-01-14 10:54:00,
2013-01-14 05:59:00,56.5,56.5,29.94,West,271,1.1,0.0,100,0.00,CLR,SCT,0.00,0.0,WeatherDisplay:10.37,2013-01-14 10:59:00,
2013-01-14 06:04:00,56.5,56.5,29.95,West,271,0.0,0.0,100,0.00,CLR,SCT,0.00,0.0,WeatherDisplay:10.37,2013-01-14 11:04:00,
2013-01-14 06:09:00,56.5,56.5,29.95,West,271,0.0,0.0,100,0.00,CLR,SCT,0.00,0.0,WeatherDisplay:10.37,2013-01-14 11:09:00,
2013-01-14 06:14:00,56.4,56.4,29.95,West,271,0.0,0.0,100,0.00,CLR,SCT,0.00,0.0,WeatherDisplay:10.37,2013-01-14 11:14:00,
2013-01-14 06:19:00,56.3,56.3,29.96,West,271,0.0,0.0,100,0.00,CLR,SCT,0.00,0.0,WeatherDisplay:10.37,2013-01-14 11:19:00,
2013-01-14 06:24:00,56.3,56.3,29.97,West,271,1.1,1.1,100,0.00,CLR,SCT,0.00,0.0,WeatherDisplay:10.37,2013-01-14 11:24:00,
2013-01-14 06:29:00,56.3,56.3,29.96,West,263,1.1,1.1,100,0.00,CLR,SCT,0.00,0.0,WeatherDisplay:10.37,2013-01-14 11:29:00,
2013-01-14 06:34:00,56.4,56.4,29.97,West,263,2.3,2.3,100,0.00,CLR,SCT,0.00,0.0,WeatherDisplay:10.37,2013-01-14 11:34:00,
2013-01-14 06:39:00,56.5,56.5,29.98,West,263,2.3,2.3,100,0.00,CLR,SCT,0.00,0.0,WeatherDisplay:10.37,2013-01-14 11:39:00,
2013-01-14 06:44:00,56.6,56.6,29.97,West,263,0.0,0.0,100,0.00,CLR,SCT,0.00,0.0,WeatherDisplay:10.37,2013-01-14 11:44:00,
2013-01-14 06:49:00,56.6,56.6,29.98,West,263,0.0,0.0,100,0.00,CLR,SCT,0.00,0.0,WeatherDisplay:10.37,2013-01-14 11:49:00,
2013-01-14 06:54:00,56.5,56.5,29.98,West,263,0.0,0.0,100,0.00,CLR,SCT,0.00,0.0,WeatherDisplay:10.37,2013-01-14 11:54:00,
2013-01-14 06:59:00,56.4,56.4,29.97,West,262,1.1,1.1,100,0.00,CLR,SCT,0.00,0.0,WeatherDisplay:10.37,2013-01-14 11:59:00,
2013-01-14 07:04:00,56.3,56.3,29.98,West,262,0.0,0.0,100,0.00,CLR,SCT,0.00,0.0,WeatherDisplay:10.37,2013-01-14 12:04:00,
2013-01-14 07:09:00,56.3,56.3,29.99,West,262,0.0,0.0,100,0.00,CLR,SCT,0.00,0.0,WeatherDisplay:10.37,2013-01-14 12:09:00,
2013-01-14 07:14:00,56.4,56.4,30.00,West,262,0.0,0.0,100,0.00,CLR,SCT,0.00,0.0,WeatherDisplay:10.37,2013-01-14 12:14:00,
2013-01-14 07:19:00,56.3,56.3,30.00,West,262,0.0,0.0,100,0.00,CLR,SCT,0.00,0.0,WeatherDisplay:10.37,2013-01-14 12:19:00,
2013-01-14 07:24:00,56.3,56.3,30.01,West,263,1.0,0.0,100,0.00,CLR,SCT,0.00,0.0,WeatherDisplay:10.37,2013-01-14 12:24:00,
2013-01-14 07:29:00,56.3,56.3,30.01,West,265,1.1,1.1,100,0.00,CLR,SCT,0.00,0.0,WeatherDisplay:10.37,2013-01-14 12:29:00,
2013-01-14 07:34:00,56.4,56.4,30.01,West,275,3.5,3.5,100,0.00,CLR,SCT,0.00,0.0,WeatherDisplay:10.37,2013-01-14 12:34:00,
2013-01-14 07:39:00,56.4,56.4,30.02,West,265,4.6,4.6,100,0.00,CLR,SCT,0.00,0.0,WeatherDisplay:10.37,2013-01-14 12:39:00,
2013-01-14 07:44:00,56.5,56.5,30.03,NNE,18,3.5,3.5,100,0.00,CLR,SCT,0.00,0.0,WeatherDisplay:10.37,2013-01-14 12:44:00,
2013-01-14 07:49:00,56.4,56.4,30.04,WNW,288,3.5,3.5,100,0.00,CLR,SCT,0.00,0.0,WeatherDisplay:10.37,2013-01-14 12:49:00,
2013-01-14 07:54:00,56.3,56.3,30.04,NW,304,1.1,1.1,100,0.00,CLR,SCT,0.00,0.0,WeatherDisplay:10.37,2013-01-14 12:54:00,
2013-01-14 07:59:00,56.0,56.0,30.04,NNW,343,3.5,3.5,100,0.00,CLR,SCT,0.00,0.0,WeatherDisplay:10.37,2013-01-14 12:59:00,
2013-01-14 08:04:00,55.6,55.6,30.04,North,5,3.5,3.5,100,0.00,CLR,SCT,0.00,0.0,WeatherDisplay:10.37,2013-01-14 13:04:00,
2013-01-14 08:09:00,55.3,55.3,30.06,NW,304,3.5,3.5,100,0.00,CLR,SCT,0.00,0.0,WeatherDisplay:10.37,2013-01-14 13:09:00,
2013-01-14 08:14:00,55.0,55.0,30.06,NNW,332,2.3,2.3,100,0.00,CLR,SCT,0.00,0.0,WeatherDisplay:10.37,2013-01-14 13:14:00,
2013-01-14 08:19:00,54.8,54.8,30.06,NNE,22,1.1,1.1,100,0.00,CLR,SCT,0.00,0.0,WeatherDisplay:10.37,2013-01-14 13:19:00,
2013-01-14 08:24:00,54.6,54.6,30.06,WSW,255,1.1,1.1,100,0.00,CLR,SCT,0.00,5.0,WeatherDisplay:10.37,2013-01-14 13:24:00,
2013-01-14 08:29:00,54.4,54.4,30.06,SE,137,3.5,3.5,100,0.00,CLR,SCT,0.00,5.0,WeatherDisplay:10.37,2013-01-14 13:29:00,
2013-01-14 08:34:00,54.2,54.2,30.06,North,355,1.1,1.1,100,0.00,CLR,SCT,0.00,9.0,WeatherDisplay:10.37,2013-01-14 13:34:00,
2013-01-14 08:39:00,54.0,53.7,30.07,NW,315,4.6,4.6,99,0.00,CLR,SCT,0.00,5.0,WeatherDisplay:10.37,2013-01-14 13:39:00,
2013-01-14 08:44:00,53.9,53.3,30.07,NE,34,2.0,2.0,98,0.00,CLR,SCT,0.00,11.0,WeatherDisplay:10.37,2013-01-14 13:44:00,
2013-01-14 08:49:00,53.8,53.2,30.08,WNW,296,2.3,2.3,98,0.00,CLR,SCT,0.00,9.0,WeatherDisplay:10.37,2013-01-14 13:49:00,
2013-01-14 08:54:00,53.7,52.9,30.08,NNW,340,1.1,1.1,97,0.00,CLR,SCT,0.00,9.0,WeatherDisplay:10.37,2013-01-14 13:54:00,
2013-01-14 08:59:00,53.7,52.6,30.08,NW,308,2.0,2.0,96,0.00,CLR,SCT,0.00,14.0,WeatherDisplay:10.37,2013-01-14 13:59:00,
2013-01-14 09:04:00,53.6,52.2,30.08,NNE,25,3.5,3.5,95,0.00,OVC,SCT,0.00,14.0,WeatherDisplay:10.37,2013-01-14 14:04:00,
2013-01-14 09:09:00,53.7,52.3,30.09,NW,320,1.1,1.1,95,0.00,OVC,SCT,0.00,16.0,WeatherDisplay:10.37,2013-01-14 14:09:00,
2013-01-14 09:14:00,53.6,51.9,30.09,North,355,1.1,1.1,94,0.00,OVC,SCT,0.00,19.0,WeatherDisplay:10.37,2013-01-14 14:14:00,
2013-01-14 09:19:00,53.6,51.6,30.09,NNW,334,1.1,1.1,93,0.00,OVC,SCT,0.00,21.0,WeatherDisplay:10.37,2013-01-14 14:19:00,
2013-01-14 09:24:00,53.6,51.6,30.09,NNW,348,0.0,0.1,93,0.00,OVC,SCT,0.00,19.0,WeatherDisplay:10.37,2013-01-14 14:24:00,
2013-01-14 09:29:00,53.5,51.5,30.10,West,273,1.1,1.3,93,0.00,OVC,SCT,0.00,9.0,WeatherDisplay:10.37,2013-01-14 14:29:00,
2013-01-14 09:34:00,53.4,51.1,30.10,NNW,338,1.1,0.0,92,0.00,OVC,SCT,0.00,9.0,WeatherDisplay:10.37,2013-01-14 14:34:00,
2013-01-14 09:39:00,53.3,51.0,30.10,NNW,342,0.0,0.0,92,0.00,OVC,SCT,0.00,14.0,WeatherDisplay:10.37,2013-01-14 14:39:00,
2013-01-14 09:44:00,53.3,50.7,30.10,NNW,335,0.0,0.0,91,0.00,OVC,SCT,0.00,14.0,WeatherDisplay:10.37,2013-01-14 14:44:00,
2013-01-14 09:49:00,53.3,50.7,30.10,NNW,336,1.1,1.1,91,0.00,OVC,SCT,0.00,14.0,WeatherDisplay:10.37,2013-01-14 14:49:00,
2013-01-14 09:54:00,53.3,50.4,30.11,NW,322,1.1,0.0,90,0.00,OVC,SCT,0.00,14.0,WeatherDisplay:10.37,2013-01-14 14:54:00,
2013-01-14 09:59:00,53.2,49.7,30.11,East,85,2.0,2.0,88,0.00,OVC,SCT,0.00,14.0,WeatherDisplay:10.37,2013-01-14 14:59:00,
2013-01-14 10:04:00,53.3,50.1,30.11,WNW,296,1.1,0.0,89,0.00,OVC,SCT,0.00,18.0,WeatherDisplay:10.37,2013-01-14 15:04:00,
2013-01-14 10:09:00,53.2,50.0,30.11,NNW,335,1.1,0.0,89,0.00,OVC,SCT,0.00,18.0,WeatherDisplay:10.37,2013-01-14 15:09:00,
2013-01-14 10:14:00,53.2,49.7,30.11,NNE,12,1.1,1.1,88,0.00,OVC,SCT,0.00,14.0,WeatherDisplay:10.37,2013-01-14 15:14:00,
2013-01-14 10:19:00,53.2,49.7,30.12,NW,314,1.1,0.0,88,0.00,OVC,SCT,0.00,16.0,WeatherDisplay:10.37,2013-01-14 15:19:00,
2013-01-14 10:24:00,53.1,49.0,30.12,West,263,3.5,3.5,86,0.00,OVC,SCT,0.00,12.0,WeatherDisplay:10.37,2013-01-14 15:24:00,
2013-01-14 10:29:00,53.1,48.7,30.12,North,360,1.1,1.1,85,0.00,OVC,SCT,0.00,12.0,WeatherDisplay:10.37,2013-01-14 15:29:00,
2013-01-14 10:34:00,53.1,48.7,30.12,North,355,0.0,0.0,85,0.00,OVC,SCT,0.00,14.0,WeatherDisplay:10.37,2013-01-14 15:34:00,
2013-01-14 10:39:00,53.0,48.3,30.12,WNW,296,1.1,1.1,84,0.00,OVC,SCT,0.00,14.0,WeatherDisplay:10.37,2013-01-14 15:39:00,
2013-01-14 10:44:00,52.8,47.5,30.12,NE,38,1.1,0.0,82,0.00,OVC,SCT,0.00,18.0,WeatherDisplay:10.37,2013-01-14 15:44:00,
2013-01-14 10:49:00,52.8,47.8,30.12,WNW,298,0.0,0.5,83,0.00,OVC,SCT,0.00,16.0,WeatherDisplay:10.37,2013-01-14 15:49:00,
2013-01-14 10:54:00,52.8,47.1,30.12,North,5,2.3,2.3,81,0.00,OVC,SCT,0.00,14.0,WeatherDisplay:10.37,2013-01-14 15:54:00,
2013-01-14 10:59:00,52.8,47.1,30.12,WNW,298,1.1,1.1,81,0.00,OVC,SCT,0.00,16.0,WeatherDisplay:10.37,2013-01-14 15:59:00,
2013-01-14 11:04:00,52.8,47.1,30.11,WNW,298,2.3,2.3,81,0.00,OVC,SCT,0.00,25.0,WeatherDisplay:10.37,2013-01-14 16:04:00,
2013-01-14 11:09:00,52.7,46.7,30.11,NNW,340,3.5,3.5,80,0.00,OVC,SCT,0.00,25.0,WeatherDisplay:10.37,2013-01-14 16:09:00,
2013-01-14 11:14:00,52.6,45.2,30.12,ESE,117,3.0,3.0,76,0.00,OVC,SCT,0.00,25.0,WeatherDisplay:10.37,2013-01-14 16:14:00,
2013-01-14 11:19:00,52.5,44.4,30.11,WNW,299,8.1,8.1,74,0.00,OVC,SCT,0.00,25.0,WeatherDisplay:10.37,2013-01-14 16:19:00,
2013-01-14 11:24:00,52.4,44.4,30.11,East,82,2.3,2.3,74,0.00,OVC,SCT,0.00,28.0,WeatherDisplay:10.37,2013-01-14 16:24:00,
2013-01-14 11:29:00,52.3,44.3,30.11,WNW,300,3.5,3.5,74,0.00,OVC,SCT,0.00,30.0,WeatherDisplay:10.37,2013-01-14 16:29:00,
2013-01-14 11:34:00,52.1,44.1,30.11,NNE,32,2.3,2.3,74,0.00,OVC,SCT,0.00,35.0,WeatherDisplay:10.37,2013-01-14 16:34:00,
2013-01-14 11:39:00,52.0,44.3,30.11,WNW,286,1.1,1.7,75,0.00,OVC,SCT,0.00,26.0,WeatherDisplay:10.37,2013-01-14 16:39:00,
2013-01-14 11:44:00,51.9,44.6,30.12,NW,311,3.5,3.5,76,0.00,OVC,SCT,0.00,21.0,WeatherDisplay:10.37,2013-01-14 16:44:00,
2013-01-14 11:49:00,51.7,44.0,30.12,NNW,333,2.3,2.3,75,0.00,OVC,SCT,0.00,19.0,WeatherDisplay:10.37,2013-01-14 16:49:00,
2013-01-14 11:54:00,51.5,43.8,30.11,WNW,301,0.0,0.6,75,0.00,OVC,SCT,0.00,23.0,WeatherDisplay:10.37,2013-01-14 16:54:00,
2013-01-14 11:59:00,51.4,44.4,30.11,NW,317,0.0,0.0,77,0.00,OVC,SCT,0.00,25.0,WeatherDisplay:10.37,2013-01-14 16:59:00,
2013-01-14 12:04:00,51.2,44.6,30.12,NW,317,1.1,1.1,78,0.00,OVC,SCT,0.00,23.0,WeatherDisplay:10.37,2013-01-14 17:04:00,
2013-01-14 12:09:00,51.1,44.1,30.12,NW,317,0.0,0.0,77,0.00,OVC,SCT,0.00,16.0,WeatherDisplay:10.37,2013-01-14 17:09:00,
2013-01-14 12:14:00,51.0,44.7,30.12,NNE,27,0.0,0.0,79,0.00,OVC,SCT,0.00,18.0,WeatherDisplay:10.37,2013-01-14 17:14:00,
2013-01-14 12:19:00,50.9,44.3,30.12,NNE,24,0.0,0.0,78,0.00,OVC,SCT,0.00,16.0,WeatherDisplay:10.37,2013-01-14 17:19:00,
2013-01-14 12:24:00,50.8,44.2,30.10,NNW,330,0.0,0.1,78,0.00,OVC,SCT,0.00,25.0,WeatherDisplay:10.37,2013-01-14 17:24:00,
2013-01-14 12:29:00,50.7,44.1,30.09,ENE,59,1.1,1.1,78,0.00,CLR,SCT,0.00,32.0,WeatherDisplay:10.37,2013-01-14 17:29:00,
2013-01-14 12:34:00,50.7,44.4,30.09,SSE,151,1.1,1.1,79,0.00,CLR,SCT,0.00,26.0,WeatherDisplay:10.37,2013-01-14 17:34:00,
2013-01-14 12:39:00,50.6,44.0,30.10,NE,34,2.3,2.3,78,0.00,CLR,SCT,0.00,28.0,WeatherDisplay:10.37,2013-01-14 17:39:00,
2013-01-14 12:44:00,50.5,43.6,30.11,North,5,2.3,2.3,77,0.00,FEW,SCT,0.00,25.0,WeatherDisplay:10.37,2013-01-14 17:44:00,
2013-01-14 12:49:00,50.4,43.5,30.11,NW,304,1.1,1.1,77,0.00,SCT,,0.00,21.0,WeatherDisplay:10.37,2013-01-14 17:49:00,
2013-01-14 12:54:00,50.3,43.7,30.12,NNW,335,0.0,0.0,78,0.00,BKN,SCT,0.00,18.0,WeatherDisplay:10.37,2013-01-14 17:54:00,
2013-01-14 12:59:00,50.3,43.4,30.12,NW,313,1.1,1.1,77,0.00,BKN,SCT,0.00,19.0,WeatherDisplay:10.37,2013-01-14 17:59:00,
2013-01-14 13:04:00,50.1,43.2,30.13,NE,34,1.1,1.1,77,0.00,BKN,SCT,0.00,19.0,WeatherDisplay:10.37,2013-01-14 18:04:00,
2013-01-14 13:09:00,50.0,42.7,30.13,NNE,24,1.1,1.1,76,0.00,BKN,SCT,0.00,23.0,WeatherDisplay:10.37,2013-01-14 18:09:00,
2013-01-14 13:14:00,49.9,43.0,30.12,NW,317,1.0,1.0,77,0.00,BKN,SCT,0.00,33.0,WeatherDisplay:10.37,2013-01-14 18:14:00,
2013-01-14 13:19:00,49.8,42.2,30.12,NW,306,2.3,2.3,75,0.00,BKN,SCT,0.00,26.0,WeatherDisplay:10.37,2013-01-14 18:19:00,
2013-01-14 13:24:00,49.7,42.1,30.12,WNW,298,0.0,0.6,75,0.00,BKN,SCT,0.00,18.0,WeatherDisplay:10.37,2013-01-14 18:24:00,
2013-01-14 13:29:00,49.6,42.3,30.10,NW,325,1.1,0.0,76,0.00,BKN,SCT,0.00,18.0,WeatherDisplay:10.37,2013-01-14 18:29:00,
2013-01-14 13:34:00,49.5,41.9,30.10,NW,325,1.1,1.1,75,0.00,BKN,SCT,0.00,23.0,WeatherDisplay:10.37,2013-01-14 18:34:00,
2013-01-14 13:39:00,49.4,41.8,30.11,WNW,298,2.3,2.3,75,0.00,BKN,SCT,0.00,21.0,WeatherDisplay:10.37,2013-01-14 18:39:00,
2013-01-14 13:44:00,49.3,42.1,30.11,WNW,296,0.0,0.0,76,0.00,BKN,SCT,0.00,28.0,WeatherDisplay:10.37,2013-01-14 18:44:00,
2013-01-14 13:49:00,49.2,42.3,30.12,NW,313,0.0,0.0,77,0.00,BKN,SCT,0.00,25.0,WeatherDisplay:10.37,2013-01-14 18:49:00,
2013-01-14 13:54:00,49.1,42.2,30.12,NW,324,0.0,0.0,77,0.00,BKN,SCT,0.00,26.0,WeatherDisplay:10.37,2013-01-14 18:54:00,
2013-01-14 13:59:00,49.0,42.1,30.12,NW,311,0.0,0.0,77,0.00,BKN,SCT,0.00,33.0,WeatherDisplay:10.37,2013-01-14 18:59:00,
2013-01-14 14:04:00,49.0,41.8,30.13,NE,51,2.3,2.3,76,0.00,BKN,SCT,0.00,40.0,WeatherDisplay:10.37,2013-01-14 19:04:00,
2013-01-14 14:09:00,48.9,41.7,30.13,NW,321,2.3,2.3,76,0.00,BKN,SCT,0.00,47.0,WeatherDisplay:10.37,2013-01-14 19:09:00,
2013-01-14 14:14:00,48.9,41.7,30.13,WNW,290,3.5,3.5,76,0.00,BKN,SCT,0.00,40.0,WeatherDisplay:10.37,2013-01-14 19:14:00,
2013-01-14 14:19:00,48.9,42.0,30.13,NNW,340,0.0,0.4,77,0.00,BKN,SCT,0.00,33.0,WeatherDisplay:10.37,2013-01-14 19:19:00,
2013-01-14 14:24:00,48.9,41.7,30.13,NNW,340,0.0,0.3,76,0.00,BKN,SCT,0.00,28.0,WeatherDisplay:10.37,2013-01-14 19:24:00,
2013-01-14 14:29:00,48.9,42.0,30.12,NNE,12,0.0,0.0,77,0.00,BKN,SCT,0.00,32.0,WeatherDisplay:10.37,2013-01-14 19:29:00,
2013-01-14 14:34:00,48.9,42.0,30.12,North,355,1.1,0.0,77,0.00,BKN,SCT,0.00,25.0,WeatherDisplay:10.37,2013-01-14 19:34:00,
2013-01-14 14:39:00,48.9,42.0,30.12,NNW,340,0.0,0.0,77,0.00,BKN,SCT,0.00,25.0,WeatherDisplay:10.37,2013-01-14 19:39:00,
2013-01-14 14:44:00,48.9,42.3,30.13,NNW,338,1.1,0.0,78,0.00,BKN,SCT,0.00,25.0,WeatherDisplay:10.37,2013-01-14 19:44:00,
2013-01-14 14:49:00,48.9,42.3,30.11,NNE,17,1.1,1.1,78,0.00,BKN,SCT,0.00,35.0,WeatherDisplay:10.37,2013-01-14 19:49:00,
2013-01-14 14:54:00,48.9,42.7,30.14,NNE,17,0.0,0.0,79,0.00,BKN,SCT,0.00,16.0,WeatherDisplay:10.37,2013-01-14 19:54:00,
2013-01-14 14:59:00,48.9,42.7,30.13,NW,308,1.1,0.0,79,0.00,BKN,SCT,0.00,21.0,WeatherDisplay:10.37,2013-01-14 19:59:00,
2013-01-14 15:04:00,48.9,42.7,30.12,NW,308,0.0,0.1,79,0.00,BKN,SCT,0.00,26.0,WeatherDisplay:10.37,2013-01-14 20:04:00,
2013-01-14 15:09:00,48.9,42.7,30.13,NW,308,0.0,0.0,79,0.00,BKN,SCT,0.00,26.0,WeatherDisplay:10.37,2013-01-14 20:09:00,
2013-01-14 15:14:00,48.9,42.0,30.14,NW,304,2.3,2.3,77,0.00,BKN,SCT,0.00,23.0,WeatherDisplay:10.37,2013-01-14 20:14:00,
2013-01-14 15:19:00,48.9,42.3,30.14,NNW,330,1.1,1.1,78,0.00,BKN,SCT,0.00,19.0,WeatherDisplay:10.37,2013-01-14 20:19:00,
2013-01-14 15:24:00,48.9,42.3,30.14,NW,324,1.1,0.0,78,0.00,OVC,SCT,0.00,18.0,WeatherDisplay:10.37,2013-01-14 20:24:00,
2013-01-14 15:29:00,48.9,41.7,30.14,NNW,340,2.3,2.3,76,0.00,BKN,SCT,0.00,25.0,WeatherDisplay:10.37,2013-01-14 20:29:00,
2013-01-14 15:34:00,48.9,41.7,30.14,NNW,337,1.1,0.0,76,0.00,OVC,SCT,0.00,19.0,WeatherDisplay:10.37,2013-01-14 20:34:00,
2013-01-14 15:39:00,48.8,40.2,30.15,North,360,1.1,0.0,72,0.00,BKN,SCT,0.00,21.0,WeatherDisplay:10.37,2013-01-14 20:39:00,
2013-01-14 15:44:00,48.7,39.0,30.14,NNW,348,0.0,0.2,69,0.00,BKN,SCT,0.00,25.0,WeatherDisplay:10.37,2013-01-14 20:44:00,
2013-01-14 15:49:00,48.6,38.1,30.15,WNW,302,4.6,4.6,67,0.00,OVC,SCT,0.00,16.0,WeatherDisplay:10.37,2013-01-14 20:49:00,
2013-01-14 15:54:00,48.6,38.5,30.15,NNW,331,0.0,0.0,68,0.00,OVC,SCT,0.00,16.0,WeatherDisplay:10.37,2013-01-14 20:54:00,
2013-01-14 15:59:00,48.6,38.1,30.15,NNW,337,1.1,0.0,67,0.00,OVC,SCT,0.00,16.0,WeatherDisplay:10.37,2013-01-14 20:59:00,
2013-01-14 16:04:00,48.5,38.0,30.14,NNW,337,0.0,0.0,67,0.00,CLR,SCT,0.00,14.0,WeatherDisplay:10.37,2013-01-14 21:04:00,
2013-01-14 16:09:00,48.4,37.6,30.14,NNW,338,0.0,0.0,66,0.00,CLR,SCT,0.00,16.0,WeatherDisplay:10.37,2013-01-14 21:09:00,
2013-01-14 16:14:00,48.3,37.8,30.14,WNW,287,2.0,2.0,67,0.00,CLR,SCT,0.00,16.0,WeatherDisplay:10.37,2013-01-14 21:14:00,
2013-01-14 16:19:00,48.3,37.8,30.14,WNW,298,0.0,0.0,67,0.00,CLR,SCT,0.00,18.0,WeatherDisplay:10.37,2013-01-14 21:19:00,
2013-01-14 16:24:00,48.2,37.0,30.14,WNW,298,0.0,0.0,65,0.00,CLR,SCT,0.00,11.0,WeatherDisplay:10.37,2013-01-14 21:24:00,
2013-01-14 16:29:00,48.2,37.0,30.13,WNW,298,1.1,1.1,65,0.00,CLR,SCT,0.00,11.0,WeatherDisplay:10.37,2013-01-14 21:29:00,
2013-01-14 16:34:00,48.2,37.8,30.14,WNW,298,0.0,0.0,67,0.00,CLR,SCT,0.00,5.0,WeatherDisplay:10.37,2013-01-14 21:34:00,
2013-01-14 16:39:00,48.1,38.4,30.14,WNW,298,0.0,0.0,69,0.00,CLR,SCT,0.00,5.0,WeatherDisplay:10.37,2013-01-14 21:39:00,
2013-01-14 16:44:00,48.1,38.0,30.15,WNW,298,0.0,0.0,68,0.00,CLR,SCT,0.00,0.0,WeatherDisplay:10.37,2013-01-14 21:44:00,
2013-01-14 16:49:00,48.0,37.6,30.16,WNW,298,0.0,0.0,67,0.00,CLR,SCT,0.00,0.0,WeatherDisplay:10.37,2013-01-14 21:49:00,
2013-01-14 16:54:00,47.9,37.5,30.16,WNW,298,1.1,0.0,67,0.00,CLR,SCT,0.00,0.0,WeatherDisplay:10.37,2013-01-14 21:54:00,
2013-01-14 16:59:00,47.8,37.4,30.16,NNW,332,1.1,0.0,67,0.00,CLR,SCT,0.00,0.0,WeatherDisplay:10.37,2013-01-14 21:59:00,
2013-01-14 17:04:00,47.8,38.1,30.15,NNW,332,0.0,0.0,69,0.00,CLR,SCT,0.00,0.0,WeatherDisplay:10.37,2013-01-14 22:04:00,
2013-01-14 17:09:00,47.7,38.4,30.16,NNW,332,0.0,0.0,70,0.00,CLR,SCT,0.00,0.0,WeatherDisplay:10.37,2013-01-14 22:09:00,
2013-01-14 17:14:00,47.7,38.0,30.16,NNW,332,0.0,0.0,69,0.00,CLR,SCT,0.00,0.0,WeatherDisplay:10.37,2013-01-14 22:14:00,
2013-01-14 17:19:00,47.6,37.9,30.17,NNW,332,0.0,0.0,69,0.00,CLR,SCT,0.00,0.0,WeatherDisplay:10.37,2013-01-14 22:19:00,
2013-01-14 17:24:00,47.6,37.9,30.17,NNW,332,0.0,0.0,69,0.00,CLR,SCT,0.00,0.0,WeatherDisplay:10.37,2013-01-14 22:24:00,
2013-01-14 17:29:00,47.6,39.0,30.18,NNW,332,0.0,0.0,72,0.00,CLR,SCT,0.00,0.0,WeatherDisplay:10.37,2013-01-14 22:29:00,
2013-01-14 17:34:00,47.5,38.6,30.18,NNW,332,0.0,0.0,71,0.00,CLR,SCT,0.00,0.0,WeatherDisplay:10.37,2013-01-14 22:34:00,
2013-01-14 17:39:00,47.5,39.3,30.17,NNW,332,1.1,0.0,73,0.00,CLR,SCT,0.00,0.0,WeatherDisplay:10.37,2013-01-14 22:39:00,
2013-01-14 17:44:00,47.4,39.2,30.18,NNW,332,0.0,0.0,73,0.00,CLR,SCT,0.00,0.0,WeatherDisplay:10.37,2013-01-14 22:44:00,
2013-01-14 17:49:00,47.3,39.4,30.18,NNW,332,0.0,0.0,74,0.00,CLR,SCT,0.00,0.0,WeatherDisplay:10.37,2013-01-14 22:49:00,
2013-01-14 17:54:00,47.2,38.6,30.19,NNW,332,0.0,0.0,72,0.00,CLR,SCT,0.00,0.0,WeatherDisplay:10.37,2013-01-14 22:54:00,
2013-01-14 17:59:00,47.1,38.9,30.19,NNW,332,0.0,0.0,73,0.00,CLR,SCT,0.00,0.0,WeatherDisplay:10.37,2013-01-14 22:59:00,
2013-01-14 18:04:00,47.0,38.8,30.19,NNW,332,0.0,0.0,73,0.00,CLR,SCT,0.00,0.0,WeatherDisplay:10.37,2013-01-14 23:04:00,
2013-01-14 18:09:00,46.9,38.3,30.20,NW,310,0.0,0.0,72,0.00,CLR,SCT,0.00,0.0,WeatherDisplay:10.37,2013-01-14 23:09:00,
2013-01-14 18:14:00,46.8,38.6,30.20,NW,310,0.0,0.0,73,0.00,CLR,SCT,0.00,0.0,WeatherDisplay:10.37,2013-01-14 23:14:00,
2013-01-14 18:19:00,46.7,38.1,30.20,NW,310,0.0,0.0,72,0.00,CLR,SCT,0.00,0.0,WeatherDisplay:10.37,2013-01-14 23:19:00,
2013-01-14 18:24:00,46.7,38.5,30.20,NW,310,0.0,0.0,73,0.00,CLR,SCT,0.00,0.0,WeatherDisplay:10.37,2013-01-14 23:24:00,
2013-01-14 18:29:00,46.6,38.8,30.20,NW,310,0.0,0.0,74,0.00,CLR,SCT,0.00,0.0,WeatherDisplay:10.37,2013-01-14 23:29:00,
2013-01-14 18:34:00,46.5,38.0,30.21,NNW,329,0.0,0.1,72,0.00,CLR,SCT,0.00,0.0,WeatherDisplay:10.37,2013-01-14 23:34:00,
2013-01-14 18:39:00,46.4,37.5,30.22,NNW,329,0.0,0.0,71,0.00,CLR,SCT,0.00,0.0,WeatherDisplay:10.37,2013-01-14 23:39:00,
2013-01-14 18:44:00,46.3,38.1,30.23,NNW,329,0.0,0.0,73,0.00,CLR,SCT,0.00,0.0,WeatherDisplay:10.37,2013-01-14 23:44:00,
2013-01-14 18:49:00,46.3,37.8,30.23,NNW,329,1.1,0.0,72,0.00,CLR,SCT,0.00,0.0,WeatherDisplay:10.37,2013-01-14 23:49:00,
2013-01-14 18:54:00,46.3,38.5,30.24,NW,320,2.3,2.3,74,0.00,CLR,SCT,0.00,0.0,WeatherDisplay:10.37,2013-01-14 23:54:00,
2013-01-14 18:59:00,46.1,38.6,30.23,NNW,330,1.1,1.1,75,0.01,RA,SCT,0.01,0.0,WeatherDisplay:10.37,2013-01-14 23:59:00,
2013-01-14 19:04:00,45.8,39.3,30.23,NNW,332,0.0,0.0,78,0.01,RA,SCT,0.01,0.0,WeatherDisplay:10.37,2013-01-15 00:04:00,
2013-01-14 19:09:00,45.6,39.5,30.23,NNW,332,0.0,0.0,79,0.01,,SCT,0.01,0.0,WeatherDisplay:10.37,2013-01-15 00:09:00,
2013-01-14 19:14:00,45.3,39.8,30.23,NNW,332,0.0,0.0,81,0.01,CLR,SCT,0.01,0.0,WeatherDisplay:10.37,2013-01-15 00:14:00,
2013-01-14 19:19:00,45.0,39.5,30.23,NNW,331,0.0,0.0,81,0.01,CLR,SCT,0.01,0.0,WeatherDisplay:10.37,2013-01-15 00:19:00,
2013-01-14 19:24:00,44.7,39.5,30.23,NNW,331,0.0,0.0,82,0.01,CLR,SCT,0.01,0.0,WeatherDisplay:10.37,2013-01-15 00:24:00,
2013-01-14 19:29:00,44.6,39.4,30.23,NNW,331,0.0,0.0,82,0.01,CLR,SCT,0.01,0.0,WeatherDisplay:10.37,2013-01-15 00:29:00,
2013-01-14 19:34:00,44.4,39.2,30.23,NNW,337,0.0,0.0,82,0.01,CLR,SCT,0.01,0.0,WeatherDisplay:10.37,2013-01-15 00:34:00,
2013-01-14 19:39:00,44.2,38.7,30.23,NNW,337,0.0,0.0,81,0.01,CLR,SCT,0.01,0.0,WeatherDisplay:10.37,2013-01-15 00:39:00,
2013-01-14 19:44:00,44.2,38.7,30.23,NNW,337,0.0,0.0,81,0.01,CLR,SCT,0.01,0.0,WeatherDisplay:10.37,2013-01-15 00:44:00,
2013-01-14 19:49:00,44.1,37.7,30.24,NNW,344,1.1,0.0,78,0.01,CLR,SCT,0.01,0.0,WeatherDisplay:10.37,2013-01-15 00:49:00,
2013-01-14 19:54:00,44.0,36.9,30.24,NNW,330,0.0,0.0,76,0.01,CLR,SCT,0.01,0.0,WeatherDisplay:10.37,2013-01-15 00:54:00,
2013-01-14 19:59:00,44.0,36.9,30.24,NNW,333,1.1,0.0,76,0.00,CLR,SCT,0.01,0.0,WeatherDisplay:10.37,2013-01-15 00:59:00,
2013-01-14 20:04:00,43.9,36.8,30.24,NNW,337,0.0,0.0,76,0.00,CLR,SCT,0.01,0.0,WeatherDisplay:10.37,2013-01-15 01:04:00,
2013-01-14 20:09:00,43.8,36.4,30.25,NNW,337,1.1,0.0,75,0.00,CLR,SCT,0.01,0.0,WeatherDisplay:10.37,2013-01-15 01:09:00,
2013-01-14 20:14:00,43.6,36.5,30.25,NNE,15,0.0,0.0,76,0.00,CLR,SCT,0.01,0.0,WeatherDisplay:10.37,2013-01-15 01:14:00,
2013-01-14 20:19:00,43.5,37.1,30.25,NW,305,0.0,0.0,78,0.00,CLR,SCT,0.01,0.0,WeatherDisplay:10.37,2013-01-15 01:19:00,
2013-01-14 20:24:00,43.3,37.5,30.25,NNW,328,0.0,0.0,80,0.00,CLR,SCT,0.01,0.0,WeatherDisplay:10.37,2013-01-15 01:24:00,
2013-01-14 20:29:00,43.1,38.0,30.26,NNW,328,0.0,0.0,82,0.01,RA,SCT,0.02,0.0,WeatherDisplay:10.37,2013-01-15 01:29:00,
2013-01-14 20:34:00,42.9,38.1,30.26,NNW,328,0.0,0.0,83,0.01,RA,SCT,0.02,0.0,WeatherDisplay:10.37,2013-01-15 01:34:00,
2013-01-14 20:39:00,42.6,38.4,30.26,NNW,328,0.0,0.0,85,0.01,,SCT,0.02,0.0,WeatherDisplay:10.37,2013-01-15 01:39:00,
2013-01-14 20:44:00,42.3,38.4,30.25,NNW,328,0.0,0.0,86,0.01,CLR,SCT,0.02,0.0,WeatherDisplay:10.37,2013-01-15 01:44:00,
2013-01-14 20:49:00,42.2,38.6,30.25,NNW,328,0.0,0.0,87,0.01,CLR,SCT,0.02,0.0,WeatherDisplay:10.37,2013-01-15 01:49:00,
2013-01-14 20:54:00,42.0,38.7,30.25,NNW,328,0.0,0.0,88,0.01,CLR,SCT,0.02,0.0,WeatherDisplay:10.37,2013-01-15 01:54:00,
2013-01-14 20:59:00,41.8,38.5,30.25,NNW,328,0.0,0.0,88,0.02,RA,SCT,0.03,0.0,WeatherDisplay:10.37,2013-01-15 01:59:00,
2013-01-14 21:04:00,41.6,38.6,30.25,NNW,328,0.0,0.0,89,0.02,RA,SCT,0.03,0.0,WeatherDisplay:10.37,2013-01-15 02:04:00,
2013-01-14 21:09:00,41.4,38.7,30.24,NNW,328,0.0,0.0,90,0.02,,SCT,0.03,0.0,WeatherDisplay:10.37,2013-01-15 02:09:00,
2013-01-14 21:14:00,41.3,38.6,30.24,NNW,328,0.0,0.1,90,0.02,CLR,SCT,0.03,0.0,WeatherDisplay:10.37,2013-01-15 02:14:00,
2013-01-14 21:19:00,41.1,38.7,30.24,NNW,328,0.0,0.0,91,0.02,CLR,SCT,0.03,0.0,WeatherDisplay:10.37,2013-01-15 02:19:00,
2013-01-14 21:24:00,41.0,38.9,30.24,NNW,328,0.0,0.0,92,0.02,CLR,SCT,0.03,0.0,WeatherDisplay:10.37,2013-01-15 02:24:00,
2013-01-14 21:29:00,40.9,39.0,30.25,NNW,328,0.0,0.0,93,0.02,RA,SCT,0.04,0.0,WeatherDisplay:10.37,2013-01-15 02:29:00,
2013-01-14 21:34:00,40.7,38.3,30.25,NW,326,0.0,0.1,91,0.02,RA,SCT,0.04,0.0,WeatherDisplay:10.37,2013-01-15 02:34:00,
2013-01-14 21:39:00,40.5,37.8,30.25,NNW,331,1.1,1.1,90,0.02,,SCT,0.04,0.0,WeatherDisplay:10.37,2013-01-15 02:39:00,
2013-01-14 21:44:00,40.4,37.4,30.25,NNW,332,1.1,0.0,89,0.02,CLR,SCT,0.04,0.0,WeatherDisplay:10.37,2013-01-15 02:44:00,
2013-01-14 21:49:00,40.2,37.5,30.25,NNW,329,0.0,0.7,90,0.02,CLR,SCT,0.04,0.0,WeatherDisplay:10.37,2013-01-15 02:49:00,
2013-01-14 21:54:00,40.0,37.3,30.25,North,350,0.0,0.5,90,0.02,CLR,SCT,0.04,0.0,WeatherDisplay:10.37,2013-01-15 02:54:00,
2013-01-14 21:59:00,39.8,37.1,30.25,NNW,341,0.0,0.0,90,0.01,CLR,SCT,0.04,0.0,WeatherDisplay:10.37,2013-01-15 02:59:00,
2013-01-14 22:04:00,39.7,37.3,30.25,NNW,341,0.0,0.0,91,0.01,CLR,SCT,0.04,0.0,WeatherDisplay:10.37,2013-01-15 03:04:00,
2013-01-14 22:09:00,39.5,36.8,30.26,NE,48,2.3,0.0,90,0.02,RA,SCT,0.05,0.0,WeatherDisplay:10.37,2013-01-15 03:09:00,
2013-01-14 22:14:00,39.3,36.9,30.26,North,5,1.1,0.0,91,0.02,RA,SCT,0.05,0.0,WeatherDisplay:10.37,2013-01-15 03:14:00,
2013-01-14 22:19:00,39.2,37.1,30.26,North,355,0.0,0.0,92,0.02,CLR,SCT,0.05,0.0,WeatherDisplay:10.37,2013-01-15 03:19:00,
2013-01-14 22:24:00,39.1,37.2,30.27,North,355,0.0,0.0,93,0.03,RA,SCT,0.06,0.0,WeatherDisplay:10.37,2013-01-15 03:24:00,
2013-01-14 22:29:00,38.9,37.0,30.27,NW,319,1.1,0.0,93,0.04,RA,SCT,0.08,0.0,WeatherDisplay:10.37,2013-01-15 03:29:00,
2013-01-14 22:34:00,38.8,37.2,30.26,NW,319,0.0,0.0,94,0.04,RA,SCT,0.08,0.0,WeatherDisplay:10.37,2013-01-15 03:34:00,
2013-01-14 22:39:00,38.6,37.3,30.26,NW,317,0.0,0.0,95,0.05,RA,SCT,0.09,0.0,WeatherDisplay:10.37,2013-01-15 03:39:00,
2013-01-14 22:44:00,38.5,37.2,30.27,NW,317,0.0,0.0,95,0.05,RA,SCT,0.10,0.0,WeatherDisplay:10.37,2013-01-15 03:44:00,
2013-01-14 22:49:00,38.4,37.4,30.26,NW,318,1.1,1.1,96,0.06,RA,SCT,0.10,0.0,WeatherDisplay:10.37,2013-01-15 03:49:00,
2013-01-14 22:54:00,38.3,37.0,30.26,NNW,331,2.3,0.0,95,0.06,RA,SCT,0.10,0.0,WeatherDisplay:10.37,2013-01-15 03:54:00,
2013-01-14 22:59:00,38.2,36.9,30.26,NNW,332,0.0,0.0,95,0.06,CLR,SCT,0.10,0.0,WeatherDisplay:10.37,2013-01-15 03:59:00,
2013-01-14 23:04:00,38.0,37.0,30.26,NNW,332,0.0,0.0,96,0.07,RA,SCT,0.11,0.0,WeatherDisplay:10.37,2013-01-15 04:04:00,
2013-01-14 23:09:00,38.0,37.0,30.25,NNW,332,0.0,0.0,96,0.06,RA,SCT,0.11,0.0,WeatherDisplay:10.37,2013-01-15 04:09:00,
2013-01-14 23:14:00,37.9,36.9,30.25,NNW,332,0.0,0.0,96,0.06,,SCT,0.11,0.0,WeatherDisplay:10.37,2013-01-15 04:14:00,
2013-01-14 23:19:00,37.9,36.9,30.25,NNW,332,0.0,0.0,96,0.06,CLR,SCT,0.11,0.0,WeatherDisplay:10.37,2013-01-15 04:19:00,
2013-01-14 23:24:00,37.8,36.8,30.25,NNW,332,0.0,0.0,96,0.05,CLR,SCT,0.11,0.0,WeatherDisplay:10.37,2013-01-15 04:24:00,
2013-01-14 23:29:00,37.8,37.0,30.25,NNW,332,0.0,0.0,97,0.03,CLR,SCT,0.11,0.0,WeatherDisplay:10.37,2013-01-15 04:29:00,
2013-01-14 23:34:00,37.8,37.0,30.24,NNW,332,0.0,0.0,97,0.04,RA,SCT,0.12,0.0,WeatherDisplay:10.37,2013-01-15 04:34:00,
2013-01-14 23:39:00,37.8,37.0,30.25,NNW,332,0.0,0.0,97,0.03,RA,SCT,0.12,0.0,WeatherDisplay:10.37,2013-01-15 04:39:00,
2013-01-14 23:44:00,37.8,37.0,30.24,NNW,332,0.0,0.0,97,0.04,RA,SCT,0.13,0.0,WeatherDisplay:10.37,2013-01-15 04:44:00,
2013-01-14 23:49:00,37.7,36.9,30.24,NNW,332,0.0,0.0,97,0.04,RA,SCT,0.14,0.0,WeatherDisplay:10.37,2013-01-15 04:49:00,
2013-01-14 23:54:00,37.7,36.9,30.24,NNW,332,0.0,0.0,97,0.05,RA,SCT,0.15,0.0,WeatherDisplay:10.37,2013-01-15 04:54:00,
2013-01-14 23:59:00,37.6,36.8,30.24,NNW,332,0.0,0.0,97,0.06,RA,SCT,0.16,0.0,WeatherDisplay:10.37,2013-01-15 04:59:00,